Startpagina
METAR-TAF:

METAR-TAF

Vliegvelden :

Luchthaven Bamako

Bamako, Mali

breedte: 12-32N, lengte: 007-57W, hoogte: 380 m

Actueel weer

Dit bericht is 38 minuten geleden gemaakt, om 12:30 UTC
Wind 8 kt uit het oostnoordoosten, variërend tussen het noordoosten en het oostzuidoosten
Temperatuur 33°C
Vochtigheid 24%
Druk 1014 hPa
Zicht 10 km of meer
geen wolken onder 1500 m en geen cumulonimbus

METAR: GABS 221230Z 07008KT 040V110 CAVOK 33/10 Q1014 NOSIG

Tijdstip: 13:08 (13:08 UTC)

Verwachting

Dit bericht is 2 uur en het 8 minuten geleden gemaakt, om 11:00 UTC
Verwachting geldig van 22 om 12 UTC tot 23 om 18 UTC
Wind 10 kt uit het noordoosten
Zicht 10 km of meer
geen wolken onder 1500 m en geen cumulonimbus

TAF: GABS 221100Z 2212/2318 05010KT CAVOK

Waarnemingen en weersverwachtingen van meer dan 4000 vliegvelden (METAR en TAF).

De beschikbare stations zijn de gele en rode punten op de kaart.

Ga met uw muis naar het station om de naam te zien.

Klik dan om waarnemingen en weersverwachtingen te zien.

kaart wijzigen: klik op de groene knoppen met een zwart kruis om in te zoomen, op de groene knop met een streepje om uit te zoomen of op de groene pijlen voor aangrenzende kaarten.


METAR-TAF: